Hillsboro, TX

4:07 AM CDT on April 24, 2017 (GMT -0500)
Hillsboro

Weather History for KINJ - September, 2013

Change the Weather History Date:

Sunday, September 1, 2013

  Actual Average (KACT) Record (KACT)
Temperature  
Mean Temperature 91 °F -  
Max Temperature 103 °F 92 °F 106 °F (2000)
Min Temperature 79 °F 69 °F 58 °F (1915)
Cooling Degree Days 26    
Growing Degree Days 41 (Base 50)    
Moisture  
Dew Point 63 °F    
Average Humidity 42    
Maximum Humidity 66    
Minimum Humidity 24    
Precipitation  
Precipitation 0.00 in - - ()
Sea Level Pressure  
Sea Level Pressure 29.86 in    
Wind  
Wind Speed 9 mph (South)    
Max Wind Speed 13 mph    
Max Gust Speed 17 mph    
Visibility 10 miles    
Events      
Averages and records for this station are not official NWS values.
T = Trace of Precipitation, MM = Missing Value Source: NWS Daily Summary

Daily Weather History Graph

Daily Weather History Graph

Search for Another Location

Airport or City:

Trip Planner

Search our weather history database for the weather conditions in past years. The results will help you decide how hot, cold, wet, or windy it might be!

Date:

Astronomy

Sep. 01, 2013 Rise Set
Actual Time 7:03 AM CDT 7:52 PM CDT
Civil Twilight 6:38 AM CDT 8:17 PM CDT
Nautical Twilight 6:09 AM CDT 8:46 PM CDT
Astronomical Twilight 5:39 AM CDT 9:16 PM CDT
Moon 3:35 AM CDT (9/1) 5:23 PM CDT (9/1)
Length of Visible Light 13h 38m
Length of Day
12h 48m
Waning Crescent, 13% of the Moon is Illuminated
Sep 1
Waning Crescent
Sep 5
New
Sep 12
First Quarter
Sep 19
Full
Sep 26
Last Quarter

Hourly Weather History & Observations

Time (CDT) Temp. Heat Index Dew Point Humidity Pressure Visibility Wind Dir Wind Speed Gust Speed Precip Events Conditions
12:15 AM 88.0 °F 88.1 °F 61.7 °F 41% 29.83 in 10.0 mi SSE 9.2 mph - N/A   Clear
12:35 AM 88.0 °F 88.1 °F 61.9 °F 41% 29.84 in 10.0 mi SSE 9.2 mph - N/A   Clear
12:55 AM 87.4 °F 88.0 °F 62.6 °F 43% 29.84 in 10.0 mi SSE 11.5 mph - N/A   Clear
1:15 AM 86.9 °F 87.5 °F 62.8 °F 44% 29.84 in 10.0 mi SSE 9.2 mph - N/A   Clear
1:35 AM 86.4 °F 87.3 °F 63.1 °F 46% 29.84 in 10.0 mi South 9.2 mph - N/A   Clear
1:55 AM 85.5 °F 86.3 °F 63.1 °F 47% 29.85 in 10.0 mi South 9.2 mph - N/A   Clear
2:15 AM 85.1 °F 86.1 °F 63.5 °F 48% 29.85 in 10.0 mi South 6.9 mph - N/A   Clear
2:35 AM 84.4 °F 85.4 °F 63.5 °F 49% 29.85 in 10.0 mi SSE 8.1 mph - N/A   Clear
2:55 AM 83.8 °F 84.9 °F 63.5 °F 50% 29.86 in 10.0 mi SSE 8.1 mph - N/A   Clear
3:15 AM 83.3 °F 84.6 °F 64.0 °F 52% 29.86 in 10.0 mi South 8.1 mph - N/A   Clear
3:35 AM 82.9 °F 84.4 °F 64.0 °F 53% 29.86 in 10.0 mi South 8.1 mph - N/A   Clear
3:55 AM 82.4 °F 83.9 °F 64.4 °F 54% 29.86 in 10.0 mi South 6.9 mph - N/A   Clear
4:15 AM 81.7 °F 83.3 °F 64.4 °F 56% 29.86 in 10.0 mi South 6.9 mph - N/A   Clear
4:35 AM 81.7 °F 83.5 °F 64.9 °F 57% 29.87 in 10.0 mi SSE 9.2 mph - N/A   Clear
4:55 AM 81.7 °F 83.6 °F 65.5 °F 58% 29.87 in 10.0 mi South 9.2 mph - N/A   Clear
5:15 AM 81.5 °F 83.6 °F 65.8 °F 59% 29.87 in 10.0 mi South 10.4 mph - N/A   Clear
5:35 AM 81.0 °F 83.0 °F 65.8 °F 60% 29.87 in 10.0 mi South 10.4 mph - N/A   Clear
5:55 AM 80.6 °F 82.7 °F 66.2 °F 61% 29.87 in 10.0 mi South 10.4 mph - N/A   Clear
6:15 AM 79.9 °F - 66.4 °F 63% 29.87 in 10.0 mi South 9.2 mph - N/A   Clear
6:35 AM 79.7 °F - 66.6 °F 64% 29.87 in 10.0 mi South 9.2 mph - N/A   Clear
6:55 AM 79.2 °F - 66.6 °F 65% 29.88 in 10.0 mi South 6.9 mph - N/A   Clear
7:15 AM 79.0 °F - 66.9 °F 66% 29.88 in 10.0 mi South 8.1 mph - N/A   Clear
7:35 AM 79.2 °F - 67.1 °F 66% 29.89 in 10.0 mi South 9.2 mph - N/A   Clear
7:55 AM 79.7 °F - 67.3 °F 66% 29.89 in 10.0 mi South 9.2 mph - N/A   Clear
8:15 AM 80.6 °F 83.1 °F 67.3 °F 64% 29.89 in 10.0 mi South 10.4 mph - N/A   Clear
8:35 AM 81.9 °F 84.4 °F 67.3 °F 61% 29.89 in 10.0 mi South 10.4 mph - N/A   Clear
8:55 AM 83.3 °F 85.9 °F 67.1 °F 58% 29.90 in 10.0 mi SSW 11.5 mph - N/A   Clear
9:15 AM 84.4 °F 87.1 °F 67.1 °F 56% 29.91 in 10.0 mi SSW 10.4 mph - N/A   Clear
9:35 AM 86.0 °F 88.8 °F 67.1 °F 53% 29.91 in 10.0 mi South 10.4 mph - N/A   Clear
9:55 AM 87.1 °F 89.9 °F 67.1 °F 51% 29.92 in 10.0 mi SW 9.2 mph - N/A   Clear
10:15 AM 88.9 °F 91.8 °F 66.9 °F 48% 29.91 in 10.0 mi South 6.9 mph - N/A   Clear
10:35 AM 90.3 °F 93.4 °F 67.1 °F 46% 29.92 in 10.0 mi South 8.1 mph - N/A   Clear
10:55 AM 92.1 °F 94.8 °F 66.0 °F 42% 29.92 in 10.0 mi SSW 10.4 mph 16.1 mph N/A   Clear
11:15 AM 93.2 °F 95.8 °F 65.8 °F 40% 29.91 in 10.0 mi South 10.4 mph 16.1 mph N/A   Clear
11:35 AM 95.0 °F 97.4 °F 65.1 °F 37% 29.91 in 10.0 mi SW 9.2 mph - N/A   Clear
11:55 AM 95.5 °F 97.9 °F 64.8 °F 36% 29.91 in 10.0 mi SSW 6.9 mph - N/A   Clear
12:15 PM 97.5 °F 100.3 °F 64.4 °F 34% 29.90 in 10.0 mi WSW 9.2 mph - N/A   Clear
12:35 PM 98.1 °F 100.7 °F 64.0 °F 33% 29.90 in 10.0 mi WSW 8.1 mph - N/A   Clear
12:55 PM 98.4 °F 100.2 °F 63.1 °F 31% 29.89 in 10.0 mi SW 6.9 mph - N/A   Clear
1:15 PM 99.9 °F 102.1 °F 63.3 °F 30% 29.88 in 10.0 mi South 4.6 mph - N/A   Scattered Clouds
1:35 PM 99.7 °F 101.8 °F 63.3 °F 30% 29.87 in 10.0 mi South 9.2 mph - N/A   Scattered Clouds
1:55 PM 98.1 °F 99.1 °F 61.5 °F 30% 29.87 in 10.0 mi West 4.6 mph - N/A   Scattered Clouds
2:15 PM 99.9 °F 100.9 °F 61.0 °F 28% 29.86 in 10.0 mi WSW 6.9 mph - N/A   Clear
2:35 PM 100.0 °F 101.2 °F 61.5 °F 28% 29.85 in 10.0 mi Calm Calm - N/A   Clear
2:55 PM 101.1 °F 102.4 °F 61.3 °F 27% 29.85 in 10.0 mi South 8.1 mph - N/A   Clear
3:15 PM 100.8 °F 101.9 °F 61.0 °F 27% 29.83 in 10.0 mi ESE 6.9 mph - N/A   Scattered Clouds
3:35 PM 100.0 °F 100.7 °F 60.6 °F 27% 29.83 in 10.0 mi ESE 4.6 mph - N/A   Scattered Clouds
3:55 PM 100.8 °F 102.4 °F 62.2 °F 28% 29.82 in 10.0 mi SE 10.4 mph - N/A   Scattered Clouds
4:15 PM 101.8 °F 103.6 °F 61.9 °F 27% 29.82 in 10.0 mi SSE 9.2 mph 17.3 mph N/A   Clear
4:35 PM 101.7 °F 103.3 °F 61.5 °F 27% 29.81 in 10.0 mi East 6.9 mph - N/A   Clear
4:55 PM 101.5 °F 102.4 °F 61.2 °F 26% 29.80 in 10.0 mi East 9.2 mph - N/A   Clear
5:15 PM 103.1 °F 104.5 °F 60.6 °F 25% 29.79 in 10.0 mi SE 5.8 mph - N/A   Clear
5:35 PM 102.2 °F 102.4 °F 59.2 °F 24% 29.79 in 10.0 mi SE 6.9 mph - N/A   Clear
5:55 PM 102.2 °F 102.4 °F 59.5 °F 24% 29.79 in 10.0 mi Calm Calm - N/A   Clear
6:15 PM 101.5 °F 101.9 °F 59.2 °F 25% 29.78 in 10.0 mi SE 9.2 mph - N/A   Clear
6:35 PM 101.8 °F 102.4 °F 59.7 °F 25% 29.79 in 10.0 mi SE 10.4 mph - N/A   Scattered Clouds
6:55 PM 100.6 °F 101.0 °F 59.5 °F 26% 29.79 in 10.0 mi ESE 9.2 mph - N/A   Scattered Clouds
7:15 PM 100.0 °F 100.2 °F 59.5 °F 26% 29.80 in 10.0 mi SE 10.4 mph - N/A   Clear
7:35 PM 99.1 °F 99.3 °F 59.9 °F 27% 29.80 in 10.0 mi SE 6.9 mph - N/A   Clear
7:55 PM 97.3 °F 97.0 °F 59.4 °F 28% 29.81 in 10.0 mi SE 11.5 mph - N/A   Clear
8:15 PM 95.4 °F 95.3 °F 60.1 °F 31% 29.82 in 10.0 mi SE 12.7 mph - N/A   Clear
8:35 PM 93.9 °F 94.4 °F 61.3 °F 34% 29.82 in 10.0 mi SSE 10.4 mph - N/A   Clear
8:55 PM 92.5 °F 92.6 °F 61.2 °F 35% 29.83 in 10.0 mi SE 8.1 mph - N/A   Clear
9:15 PM 91.8 °F 91.5 °F 60.8 °F 35% 29.84 in 10.0 mi SSE 9.2 mph - N/A   Clear
9:35 PM 90.5 °F 90.4 °F 60.6 °F 37% 29.85 in 10.0 mi SSE 6.9 mph - N/A   Clear
9:55 PM 90.5 °F 89.8 °F 59.0 °F 35% 29.86 in 10.0 mi SSE 8.1 mph - N/A   Clear
10:15 PM 90.5 °F 89.8 °F 59.0 °F 35% 29.86 in 10.0 mi SSE 8.1 mph - N/A   Clear
10:35 PM 89.6 °F 88.9 °F 59.0 °F 36% 29.86 in 10.0 mi SSE 8.1 mph - N/A   Clear
10:55 PM 89.2 °F 88.7 °F 60.1 °F 37% 29.86 in 10.0 mi SSE 6.9 mph - N/A   Clear
11:15 PM 88.9 °F 88.8 °F 61.2 °F 39% 29.87 in 10.0 mi South 4.6 mph - N/A   Clear
11:35 PM 87.6 °F 87.7 °F 61.2 °F 41% 29.87 in 10.0 mi Calm Calm - N/A   Clear
11:55 PM 87.4 °F 87.4 °F 61.0 °F 41% 29.87 in 10.0 mi South 3.5 mph - N/A   Clear